Latest Weather Observations for Mount Nowa Nowa

IDV60801

Issued at 1:31 pm EST Tuesday 31 May 2016 (issued every 30 minutes, with the page automatically refreshed every 10 minutes)

About weather observations | Map of weather stations | Latest weather observations for VIC | Other Formats
Station Details ID: 084144 Name: MOUNT NOWA NOWA Lat: -37.69 Lon: 148.09 Height: 350.0 m
Data from the previous 72 hours. | See also: Recent months at Mount Nowa Nowa
Date/Time
EST
Temp
°C
App
Temp
°C
Dew
Point
Rel
Hum
%
Delta-T
°C
Wind Press
QNH
hPa
Press
MSL
hPa
Rain
since 9 am
mm
Dir
 
Spd
km/h
Gust
km/h
Spd
kts
Gust
kts
31/01:30pm 13.1 11.4 7.5 69 2.8 E 6 13 3 7 - - 0.0
31/01:00pm 13.3 11.5 7.3 67 3.0 E 6 13 3 7 - - 0.0
31/12:30pm 14.0 12.2 7.1 63 3.4 E 6 11 3 6 - - 0.0
31/12:00pm 13.5 11.6 7.5 67 3.0 E 7 13 4 7 - - 0.0
31/11:30am 13.7 11.9 7.2 65 3.2 ENE 6 15 3 8 - - 0.0
31/11:00am 13.1 11.8 7.5 69 2.8 ENE 4 9 2 5 - - 0.0
31/10:30am 11.8 9.8 7.1 73 2.3 E 7 11 4 6 - - 0.0
31/10:00am 10.7 8.3 7.0 78 1.8 E 9 17 5 9 - - 0.0
31/09:30am 10.2 7.7 6.4 77 1.8 ENE 9 17 5 9 - - 0.0
31/09:00am 8.8 6.0 5.0 77 1.7 ENE 9 17 5 9 - - 0.0
31/08:30am 8.2 5.3 4.8 79 1.5 ENE 9 15 5 8 - - 0.0
31/08:00am 7.8 5.3 4.6 80 1.4 ENE 7 17 4 9 - - 0.0
31/07:30am 6.9 4.0 4.4 84 1.1 ENE 9 13 5 7 - - 0.0
31/07:00am 6.8 4.4 4.1 83 1.2 NE 6 13 3 7 - - 0.0
31/06:30am 7.2 4.6 4.2 81 1.3 NNE 7 15 4 8 - - 0.0
31/06:00am 7.3 4.7 4.3 81 1.3 NNE 7 11 4 6 - - 0.0
31/05:30am 7.4 4.8 4.4 81 1.3 N 7 11 4 6 - - 0.0
31/05:00am 7.4 5.0 4.5 82 1.3 NNE 6 11 3 6 - - 0.0
31/04:30am 7.8 5.9 5.1 83 1.2 NE 4 7 2 4 - - 0.0
31/04:00am 7.6 5.7 5.1 84 1.1 NNE 4 7 2 4 - - 0.0
31/03:30am 7.8 5.6 5.4 85 1.1 ENE 6 9 3 5 - - 0.0
31/03:00am 8.2 6.1 6.0 86 1.0 E 6 9 3 5 - - 0.0
31/02:30am 8.1 6.3 5.6 84 1.1 NE 4 9 2 5 - - 0.0
31/02:00am 8.1 6.3 5.6 84 1.1 NNE 4 9 2 5 - - 0.0
31/01:30am 7.5 5.3 5.5 87 0.9 NNE 6 11 3 6 - - 0.0
31/01:00am 7.5 5.8 5.8 89 0.8 NE 4 6 2 3 - - 0.0
31/12:30am 7.6 5.6 6.1 90 0.7 ENE 6 6 3 3 - - 0.0
31/12:00am 7.6 5.9 6.1 90 0.7 E 4 6 2 3 - - 0.0
 
Date/Time
EST
Temp
°C
App
Temp
°C
Dew
Point
Rel
Hum
%
Delta-T
°C
Wind Press
QNH
hPa
Press
MSL
hPa
Rain
since 9 am
mm
Dir
 
Spd
km/h
Gust
km/h
Spd
kts
Gust
kts
30/11:30pm 7.8 6.9 6.1 89 0.8 CALM 0 0 0 0 - - 0.0
30/11:00pm 7.8 6.5 6.1 89 0.8 E 2 4 1 2 - - 0.0
30/10:30pm 7.9 5.8 6.0 88 0.9 E 6 6 3 3 - - 0.0
30/10:00pm 8.3 6.8 6.6 89 0.8 NE 4 7 2 4 - - 0.0
30/09:30pm 8.3 6.4 6.8 90 0.7 E 6 7 3 4 - - 0.0
30/09:00pm 8.6 7.1 6.7 88 0.9 E 4 6 2 3 - - 0.0
30/08:30pm 8.5 6.7 7.0 90 0.7 E 6 6 3 3 - - 0.0
30/08:00pm 8.4 6.5 6.9 90 0.7 ESE 6 6 3 3 - - 0.0
30/07:30pm 8.6 7.1 6.9 89 0.8 ESE 4 6 2 3 - - 0.0
30/07:00pm 8.7 6.8 6.8 88 0.9 ESE 6 9 3 5 - - 0.0
30/06:30pm 9.0 7.0 6.4 84 1.2 ESE 6 7 3 4 - - 0.0
30/06:00pm 9.1 7.5 6.5 84 1.2 ESE 4 6 2 3 - - 0.0
30/05:30pm 9.4 7.8 6.3 81 1.5 ESE 4 6 2 3 - - 0.0
30/05:00pm 9.7 8.2 6.8 82 1.4 SE 4 6 2 3 - - 0.0
30/04:30pm 10.1 8.6 6.6 79 1.7 SE 4 9 2 5 - - 0.0
30/04:00pm 10.9 9.4 6.6 75 2.1 SE 4 4 2 2 - - 0.0
30/03:30pm 11.9 10.3 6.4 69 2.7 SW 4 6 2 3 - - 0.0
30/03:00pm 12.4 11.1 6.2 66 3.0 WSW 2 7 1 4 - - 0.0
30/02:30pm 11.9 10.6 6.0 67 2.8 WNW 2 6 1 3 - - 0.0
30/02:00pm 11.3 10.3 5.8 69 2.6 CALM 0 6 0 3 - - 0.0
30/01:30pm 11.6 10.2 5.5 66 2.9 WSW 2 6 1 3 - - 0.0
30/01:00pm 11.0 9.7 6.0 71 2.4 W 2 4 1 2 - - 0.0
30/12:30pm 10.5 8.6 5.1 69 2.5 WNW 4 7 2 4 - - 0.0
30/12:00pm 10.5 8.3 5.1 69 2.5 WNW 6 9 3 5 - - 0.0
30/11:30am 9.8 7.5 5.0 72 2.2 WNW 6 9 3 5 - - 0.0
30/11:00am 8.4 6.0 4.2 75 1.9 WNW 6 9 3 5 - - 0.0
30/10:30am 8.1 5.6 3.8 74 1.9 WNW 6 11 3 6 - - 0.0
30/10:00am 7.2 4.4 3.1 75 1.8 WNW 7 13 4 7 - - 0.0
30/09:30am 6.3 3.0 2.6 77 1.6 NW 9 15 5 8 - - 0.0
30/09:00am 5.9 2.6 2.4 78 1.5 WNW 9 19 5 10 - - 0.2
30/08:30am 5.5 2.2 2.3 80 1.3 WNW 9 17 5 9 - - 0.2
30/08:00am 5.8 2.1 2.1 77 1.5 NW 11 19 6 10 - - 0.2
30/07:30am 6.0 2.6 2.1 76 1.6 WNW 9 13 5 7 - - 0.2
30/07:00am 5.8 2.8 2.1 77 1.5 WNW 7 13 4 7 - - 0.2
30/06:30am 5.7 2.8 2.4 79 1.4 WNW 7 13 4 7 - - 0.2
30/06:00am 5.5 2.5 2.3 80 1.3 WNW 7 11 4 6 - - 0.2
30/05:30am 5.6 2.6 2.1 78 1.4 WNW 7 13 4 7 - - 0.2
30/05:00am 5.8 2.8 2.3 78 1.5 WNW 7 13 4 7 - - 0.2
30/04:30am 5.7 2.4 2.2 78 1.5 WNW 9 13 5 7 - - 0.2
30/04:00am 6.0 2.7 2.3 77 1.5 WNW 9 15 5 8 - - 0.2
30/03:30am 5.6 2.7 2.4 80 1.3 WNW 7 13 4 7 - - 0.2
30/03:00am 5.8 3.1 2.4 79 1.4 WNW 6 11 3 6 - - 0.2
30/02:30am 6.3 3.4 2.6 77 1.6 WNW 7 13 4 7 - - 0.2
30/02:00am 6.4 2.7 2.5 76 1.6 W 11 13 6 7 - - 0.2
30/01:30am 6.9 3.3 2.8 75 1.7 W 11 15 6 8 - - 0.2
30/01:00am 7.0 3.4 2.9 75 1.8 W 11 13 6 7 - - 0.2
30/12:30am 7.2 3.6 2.9 74 1.8 W 11 15 6 8 - - 0.2
30/12:00am 7.1 3.5 3.0 75 1.8 W 11 15 6 8 - - 0.2
 
Date/Time
EST
Temp
°C
App
Temp
°C
Dew
Point
Rel
Hum
%
Delta-T
°C
Wind Press
QNH
hPa
Press
MSL
hPa
Rain
since 9 am
mm
Dir
 
Spd
km/h
Gust
km/h
Spd
kts
Gust
kts
29/11:30pm 7.2 3.2 3.1 75 1.8 W 13 20 7 11 - - 0.2
29/11:00pm 7.0 3.5 3.3 77 1.6 W 11 17 6 9 - - 0.2
29/10:30pm 6.9 3.4 3.3 78 1.6 W 11 20 6 11 - - 0.2
29/10:00pm 6.8 3.3 3.6 80 1.4 W 11 15 6 8 - - 0.2
29/09:30pm 6.9 3.5 3.9 81 1.3 W 11 19 6 10 - - 0.2
29/09:00pm 7.0 4.0 4.1 82 1.3 W 9 17 5 9 - - 0.2
29/08:30pm 7.5 4.1 4.1 79 1.5 W 11 20 6 11 - - 0.2
29/08:00pm 7.8 4.1 4.4 79 1.5 W 13 20 7 11 - - 0.2
29/07:30pm 8.1 4.4 4.3 77 1.7 W 13 26 7 14 - - 0.2
29/07:00pm 8.2 4.8 4.0 75 1.9 WSW 11 22 6 12 - - 0.2
29/06:30pm 8.6 4.8 3.8 72 2.1 W 13 22 7 12 - - 0.2
29/06:00pm 8.9 5.1 3.9 71 2.2 W 13 24 7 13 - - 0.2
29/05:30pm 9.4 5.6 4.0 69 2.4 W 13 24 7 13 - - 0.2
29/05:00pm 9.9 6.4 3.6 65 2.8 W 11 20 6 11 - - 0.2
29/04:30pm 10.7 6.8 3.3 60 3.3 W 13 32 7 17 - - 0.2
29/04:00pm 11.4 7.5 3.4 58 3.6 W 13 26 7 14 - - 0.2
29/03:30pm 11.9 8.0 3.2 55 3.9 W 13 26 7 14 - - 0.2
29/03:00pm 12.3 7.3 3.5 55 4.0 W 19 37 10 20 - - 0.2
29/02:30pm 12.0 7.7 5.2 63 3.2 W 17 33 9 18 - - 0.2
29/02:00pm 11.7 8.9 7.0 73 2.3 W 11 24 6 13 - - 0.2
29/01:30pm 10.8 7.2 6.7 76 2.0 W 15 32 8 17 - - 0.2
29/01:00pm 8.9 5.9 7.7 92 0.6 W 13 28 7 15 - - 0.2
29/12:30pm 9.2 6.5 7.5 89 0.8 W 11 22 6 12 - - 0.0
29/12:00pm 9.0 6.3 7.3 89 0.8 W 11 30 6 16 - - 0.0
29/11:30am 9.7 6.3 6.1 78 1.7 W 13 30 7 16 - - 0.0
29/11:00am 9.8 6.4 5.8 76 1.9 W 13 24 7 13 - - 0.0
29/10:30am 9.3 5.9 5.7 78 1.7 W 13 32 7 17 - - 0.0
29/10:00am 9.5 5.1 4.9 73 2.1 W 17 35 9 19 - - 0.0
29/09:30am 9.0 4.6 4.8 75 1.9 W 17 33 9 18 - - 0.0
29/09:00am 8.1 4.5 5.0 81 1.4 W 13 26 7 14 - - 0.4
29/08:30am 7.8 3.8 5.1 83 1.2 W 15 28 8 15 - - 0.4
29/08:00am 7.8 3.4 4.7 81 1.4 W 17 32 9 17 - - 0.4
29/07:30am 7.1 3.1 4.8 85 1.0 W 15 24 8 13 - - 0.4
29/07:00am 7.0 3.4 5.2 88 0.8 W 13 22 7 12 - - 0.4
29/06:30am 7.8 3.7 4.4 79 1.5 W 15 28 8 15 - - 0.2
29/06:00am 7.7 3.7 4.7 81 1.3 W 15 32 8 17 - - 0.2
29/05:30am 7.6 3.3 5.1 84 1.1 W 17 33 9 18 - - 0.2
29/05:00am 8.1 3.6 4.1 76 1.8 W 17 28 9 15 - - 0.2
29/04:30am 7.9 3.5 4.5 79 1.5 W 17 37 9 20 - - 0.2
29/04:00am 7.8 3.4 4.6 80 1.4 W 17 32 9 17 - - 0.2
29/03:30am 7.8 3.3 4.2 78 1.6 W 17 28 9 15 - - 0.2
29/03:00am 7.8 3.3 4.4 79 1.5 W 17 30 9 16 - - 0.2
29/02:30am 7.6 3.5 4.2 79 1.5 W 15 33 8 18 - - 0.2
29/02:00am 7.8 3.3 4.2 78 1.6 W 17 32 9 17 - - 0.2
29/01:30am 7.5 3.4 4.5 81 1.3 W 15 22 8 12 - - 0.2
29/01:00am 7.6 3.5 4.6 81 1.3 W 15 30 8 16 - - 0.2
29/12:30am 7.9 3.9 5.0 82 1.3 W 15 26 8 14 - - 0.2
29/12:00am 8.0 4.5 5.3 83 1.2 W 13 22 7 12 - - 0.2
 
Date/Time
EST
Temp
°C
App
Temp
°C
Dew
Point
Rel
Hum
%
Delta-T
°C
Wind Press
QNH
hPa
Press
MSL
hPa
Rain
since 9 am
mm
Dir
 
Spd
km/h
Gust
km/h
Spd
kts
Gust
kts
28/11:30pm 7.9 4.4 5.5 85 1.1 W 13 26 7 14 - - 0.2
28/11:00pm 7.8 4.0 5.6 86 1.0 W 15 26 8 14 - - 0.2
28/10:30pm 7.4 3.5 5.4 87 0.9 W 15 22 8 12 - - 0.2
28/10:00pm 7.2 3.7 5.3 88 0.9 W 13 26 7 14 - - 0.2
28/09:30pm 7.4 3.9 5.4 87 0.9 W 13 24 7 13 - - 0.2
28/09:00pm 7.4 3.4 5.0 85 1.1 W 15 22 8 12 - - 0.2
28/08:30pm 7.5 3.9 4.8 83 1.2 W 13 22 7 12 - - 0.2
28/08:00pm 7.7 4.1 4.8 82 1.3 W 13 20 7 11 - - 0.2
28/07:30pm 8.1 4.5 5.0 81 1.4 W 13 20 7 11 - - 0.2
28/07:00pm 8.1 4.5 5.2 82 1.3 W 13 22 7 12 - - 0.2
28/06:30pm 7.9 4.8 5.4 84 1.1 W 11 19 6 10 - - 0.2
28/06:00pm 8.0 5.0 6.0 87 0.9 W 11 15 6 8 - - 0.2
28/05:30pm 8.3 5.3 6.1 86 1.0 W 11 20 6 11 - - 0.2
28/05:00pm 8.7 5.4 6.5 86 1.0 W 13 24 7 13 - - 0.2
28/04:30pm 10.1 7.6 6.6 79 1.7 W 9 32 5 17 - - 0.0
28/04:00pm 11.3 9.1 6.4 72 2.4 WSW 7 17 4 9 - - 0.0
28/03:30pm 11.8 8.7 5.7 66 2.9 WSW 11 24 6 13 - - 0.0
28/03:00pm 11.2 8.5 5.7 69 2.6 W 9 24 5 13 - - 0.0
28/02:30pm 10.7 7.6 5.5 70 2.4 WSW 11 30 6 16 - - 0.0
28/02:00pm 10.6 7.1 5.4 70 2.4 WSW 13 22 7 12 - - 0.0

Other Formats:

Comma delimited format used in spreadsheet applications
http://www.bom.gov.au/fwo/IDV60801/IDV60801.94930.axf

JavaScript Object Notation format (JSON) in row-major order
http://www.bom.gov.au/fwo/IDV60801/IDV60801.94930.json